AMS weather

Amsterdam Airport Schiphol
Amsterdam, Noord-Holland, Netherlands

Public forecast

Using degrees Celsius for public forecast. Weather courtesy of forecast.io.

METAR (pilot weather report)

Retrieved 2017/01/20 05:25 UTC (15 minutes ago):

EHAM 200525Z 06006KT CAVOK M03/M05 Q1036 NOSIG

TAF (pilot weather forecast)

Forecast is more than 12 hours old.

Retrieved 2017/01/19 00:28 UTC (1 day ago):

TAF EHAM 192243Z 2000/2106 08004KT CAVOK PROB30 2000/2009 6000 PROB30 2100/2106 5000